Time;durP1;ratioP1;P1;durP2;ratioP2;P2;SDS_P1;SDS_P2;PMS_P1;PMS_P2;Temp;Humidity;BMP_temperature;BMP_pressure;BME280_temperature;BME280_humidity;BME280_pressure;Samples;Min_cycle;Max_cycle;Signal;HPM_P1;HPM_P2
2023/10/27 12:59:14;;;;;;;6.20;1.70;;;14.00;97.20;;;;;;1739343;28;20656;-75
2023/10/27 13:00:10;;;;;;;3.47;1.40;;;14.00;97.20;;;;;;1729395;28;20224;-75
2023/10/27 13:01:03;;;;;;;2.75;1.20;;;13.90;97.20;;;;;;1729497;28;20236;-75
2023/10/27 13:01:54;;;;;;;2.33;1.20;;;13.90;97.20;;;;;;1725985;28;20799;-76
2023/10/27 13:02:45;;;;;;;3.08;1.55;;;13.90;97.20;;;;;;1726217;28;20262;-76
2023/10/27 13:03:38;;;;;;;4.60;1.03;;;13.90;97.20;;;;;;1726401;28;20247;-76
2023/10/27 13:04:29;;;;;;;2.97;1.08;;;13.90;97.20;;;;;;1726433;28;20201;-77
2023/10/27 13:05:19;;;;;;;3.25;1.52;;;13.90;97.20;;;;;;1726517;28;20553;-76
2023/10/27 13:06:15;;;;;;;2.30;1.03;;;13.90;97.20;;;;;;1726742;28;20200;-77
2023/10/27 13:07:05;;;;;;;1.00;0.80;;;13.90;97.20;;;;;;1726442;28;20193;-78
2023/10/27 13:07:57;;;;;;;1.87;0.80;;;13.90;97.20;;;;;;1726405;28;20196;-78
2023/10/27 13:08:49;;;;;;;3.47;0.73;;;13.90;97.20;;;;;;1725861;28;20664;-76
2023/10/27 13:09:39;;;;;;;2.65;1.15;;;13.90;97.20;;;;;;1725446;28;20205;-76
2023/10/27 13:10:30;;;;;;;3.70;1.50;;;14.00;97.20;;;;;;1723624;28;20192;-76
2023/10/27 13:11:22;;;;;;;3.00;1.37;;;14.00;97.20;;;;;;1726322;28;20201;-76
2023/10/27 13:12:13;;;;;;;1.98;1.10;;;14.00;97.20;;;;;;1726185;28;20587;-77
2023/10/27 13:13:04;;;;;;;1.37;0.90;;;14.00;97.20;;;;;;1723277;28;20609;-76
2023/10/27 13:13:56;;;;;;;2.15;1.05;;;14.10;97.20;;;;;;1726651;28;20197;-78
2023/10/27 13:14:48;;;;;;;0.85;0.70;;;14.10;97.20;;;;;;1726979;28;20200;-78
2023/10/27 13:15:40;;;;;;;2.63;0.90;;;14.10;97.20;;;;;;1726970;28;20212;-78
2023/10/27 13:16:30;;;;;;;1.70;1.50;;;14.10;97.20;;;;;;1727308;28;20203;-78
2023/10/27 13:17:21;;;;;;;4.13;1.23;;;14.10;97.20;;;;;;1727647;28;20199;-79
2023/10/27 13:18:13;;;;;;;1.50;0.83;;;14.10;97.20;;;;;;1727241;28;20200;-79
2023/10/27 13:19:04;;;;;;;1.42;0.82;;;14.10;97.20;;;;;;1727048;28;20227;-79
2023/10/27 13:19:55;;;;;;;2.80;1.10;;;14.10;97.20;;;;;;1727370;28;20223;-79
2023/10/27 13:20:48;;;;;;;3.93;1.30;;;14.10;97.20;;;;;;1727186;28;20448;-79
2023/10/27 13:21:39;;;;;;;1.30;1.10;;;14.10;97.20;;;;;;1726931;28;20975;-78
2023/10/27 13:22:30;;;;;;;2.17;1.10;;;14.20;97.20;;;;;;1726958;28;20196;-78
2023/10/27 13:23:22;;;;;;;2.00;0.80;;;14.20;97.20;;;;;;1727172;28;20818;-78
2023/10/27 13:24:12;;;;;;;1.42;0.98;;;14.20;97.20;;;;;;1727171;28;20661;-78
2023/10/27 13:25:05;;;;;;;2.80;1.10;;;14.20;97.20;;;;;;1726768;28;20737;-78
2023/10/27 13:26:01;;;;;;;2.35;1.10;;;14.20;97.20;;;;;;1726756;28;20444;-79
2023/10/27 13:26:53;;;;;;;1.63;1.00;;;14.20;97.20;;;;;;1724881;28;20684;-79
2023/10/27 13:27:48;;;;;;;2.75;1.10;;;14.30;97.20;;;;;;1723749;28;20208;-79
2023/10/27 13:28:40;;;;;;;1.13;0.90;;;14.30;97.20;;;;;;1728151;28;20247;-80
2023/10/27 13:29:31;;;;;;;3.40;1.20;;;14.30;97.20;;;;;;1723278;28;20248;-80
2023/10/27 13:30:24;;;;;;;2.20;1.15;;;14.40;97.20;;;;;;1726803;28;20205;-79
2023/10/27 13:31:16;;;;;;;4.10;1.10;;;14.50;97.20;;;;;;1726480;28;20196;-78
2023/10/27 13:32:08;;;;;;;1.38;1.10;;;14.50;97.20;;;;;;1726101;28;20228;-77
2023/10/27 13:32:59;;;;;;;1.20;0.90;;;14.60;97.20;;;;;;1727115;28;20231;-78
2023/10/27 13:33:50;;;;;;;2.63;0.93;;;14.60;97.20;;;;;;1726136;28;20212;-77
2023/10/27 13:34:41;;;;;;;3.33;1.00;;;14.70;97.20;;;;;;1725871;28;20207;-77
2023/10/27 13:35:33;;;;;;;2.90;1.10;;;14.80;97.20;;;;;;1725798;28;20675;-78
2023/10/27 13:36:24;;;;;;;1.95;0.98;;;14.80;97.20;;;;;;1726632;28;20200;-77
2023/10/27 13:37:15;;;;;;;1.60;1.08;;;14.90;97.20;;;;;;1725738;28;20200;-77
2023/10/27 13:38:07;;;;;;;2.20;1.00;;;14.90;97.20;;;;;;1725867;28;20201;-77
2023/10/27 13:38:58;;;;;;;2.13;0.90;;;15.00;97.20;;;;;;1726639;28;20221;-79
2023/10/27 13:39:48;;;;;;;1.30;0.90;;;15.00;97.20;;;;;;1725469;28;20283;-77
2023/10/27 13:40:40;;;;;;;1.53;0.80;;;15.00;97.20;;;;;;1726540;28;20669;-77
2023/10/27 13:41:34;;;;;;;2.90;1.33;;;15.00;97.20;;;;;;1726970;28;20217;-80
2023/10/27 13:42:25;;;;;;;1.60;0.90;;;15.10;97.20;;;;;;1726920;28;20197;-77
2023/10/27 13:43:19;;;;;;;3.00;1.13;;;15.10;97.20;;;;;;1726201;28;20193;-80
2023/10/27 13:44:09;;;;;;;3.50;1.10;;;15.00;97.20;;;;;;1726896;28;20220;-78
2023/10/27 13:45:00;;;;;;;2.33;1.10;;;15.00;97.20;;;;;;1725627;28;20283;-78
2023/10/27 13:46:00;;;;;;;1.87;0.93;;;15.00;97.20;;;;;;1726320;28;20204;-81
2023/10/27 13:46:51;;;;;;;1.60;1.00;;;15.00;97.20;;;;;;1719302;28;20678;-77
2023/10/27 13:47:42;;;;;;;1.93;0.93;;;15.00;97.20;;;;;;1725778;28;20558;-78
2023/10/27 13:48:34;;;;;;;2.60;1.00;;;14.90;97.20;;;;;;1726234;28;20606;-79
2023/10/27 13:49:25;;;;;;;1.17;1.05;;;14.90;97.20;;;;;;1726223;28;20851;-79
2023/10/27 13:50:15;;;;;;;1.87;1.27;;;14.90;97.20;;;;;;1726923;28;20189;-79
2023/10/27 13:51:09;;;;;;;1.30;0.97;;;14.90;97.20;;;;;;1726806;28;20983;-78
2023/10/27 13:51:59;;;;;;;3.22;1.00;;;14.90;97.20;;;;;;1726652;28;20527;-78
2023/10/27 13:52:54;;;;;;;2.20;1.47;;;14.90;97.20;;;;;;1726613;28;20206;-78
2023/10/27 13:53:44;;;;;;;2.10;1.20;;;14.80;97.20;;;;;;1726298;28;20205;-77
2023/10/27 13:54:36;;;;;;;1.80;0.80;;;14.80;97.20;;;;;;1725976;28;20203;-77
2023/10/27 13:55:28;;;;;;;2.88;1.10;;;14.80;97.20;;;;;;1725752;28;20232;-77
2023/10/27 13:56:19;;;;;;;1.75;0.95;;;14.80;97.20;;;;;;1725921;28;20769;-78
2023/10/27 13:57:11;;;;;;;1.83;0.83;;;14.80;97.20;;;;;;1725721;28;20799;-77
2023/10/27 13:58:04;;;;;;;1.92;1.20;;;14.80;97.20;;;;;;1725902;28;20210;-77
2023/10/27 13:58:55;;;;;;;2.88;1.42;;;14.80;97.20;;;;;;1726116;28;20263;-76
2023/10/27 13:59:47;;;;;;;4.17;1.00;;;14.80;97.20;;;;;;1725515;28;20339;-78
2023/10/27 14:00:39;;;;;;;1.95;0.90;;;14.80;97.20;;;;;;1726571;28;20204;-78
2023/10/27 14:01:32;;;;;;;1.13;0.90;;;14.80;97.20;;;;;;1726457;28;20196;-78
2023/10/27 14:02:24;;;;;;;2.33;1.27;;;14.80;97.20;;;;;;1726639;28;20205;-78
2023/10/27 14:03:14;;;;;;;2.05;1.10;;;14.80;97.20;;;;;;1726505;28;20208;-78
2023/10/27 14:04:06;;;;;;;6.20;1.27;;;14.80;97.20;;;;;;1726549;28;20201;-77
2023/10/27 14:04:58;;;;;;;1.73;1.02;;;14.80;97.20;;;;;;1726573;28;20287;-79
2023/10/27 14:05:49;;;;;;;1.80;0.82;;;14.80;97.20;;;;;;1727398;28;20362;-80
2023/10/27 14:06:46;;;;;;;2.10;0.73;;;14.90;97.20;;;;;;1726891;28;20212;-79
2023/10/27 14:07:37;;;;;;;2.65;0.90;;;14.90;97.20;;;;;;1726616;28;20208;-77
2023/10/27 14:08:27;;;;;;;1.73;1.00;;;14.90;97.20;;;;;;1726439;28;20190;-77
2023/10/27 14:09:21;;;;;;;3.27;1.00;;;14.90;97.20;;;;;;1725797;28;20201;-80
2023/10/27 14:10:12;;;;;;;2.55;1.35;;;15.00;97.20;;;;;;1726024;28;20738;-79
2023/10/27 14:11:05;;;;;;;1.93;1.17;;;15.00;97.20;;;;;;1724590;28;20584;-78
2023/10/27 14:11:58;;;;;;;2.53;1.30;;;15.00;97.20;;;;;;1722251;28;20228;-80
2023/10/27 14:12:49;;;;;;;3.10;1.20;;;15.00;97.20;;;;;;1722908;28;20565;-81
2023/10/27 14:13:43;;;;;;;2.47;2.13;;;15.00;97.20;;;;;;1723068;28;20209;-79
2023/10/27 14:14:34;;;;;;;2.08;1.65;;;15.00;97.20;;;;;;1722524;28;20232;-78
2023/10/27 14:15:25;;;;;;;2.37;1.60;;;15.10;97.20;;;;;;1722556;28;20197;-78
2023/10/27 14:16:18;;;;;;;5.93;1.67;;;15.10;97.20;;;;;;1722382;28;20688;-81
2023/10/27 14:17:11;;;;;;;4.97;2.75;;;15.10;97.20;;;;;;1722167;28;20669;-79
2023/10/27 14:18:02;;;;;;;8.65;2.30;;;15.10;97.20;;;;;;1722073;28;20201;-78
2023/10/27 14:18:54;;;;;;;2.85;1.70;;;15.10;97.20;;;;;;1722008;28;20276;-79
2023/10/27 14:19:49;;;;;;;2.30;1.60;;;15.10;97.20;;;;;;1721895;28;20221;-78
2023/10/27 14:20:39;;;;;;;4.53;1.80;;;15.10;97.20;;;;;;1722186;28;20205;-77
2023/10/27 14:21:37;;;;;;;2.10;1.57;;;15.10;97.20;;;;;;1722359;28;20654;-78
2023/10/27 14:22:30;;;;;;;3.20;2.67;;;15.10;97.20;;;;;;1721984;28;20324;-78
2023/10/27 14:23:22;;;;;;;5.20;2.28;;;15.10;97.20;;;;;;1722378;28;20227;-77
2023/10/27 14:24:13;;;;;;;3.03;2.15;;;15.10;97.20;;;;;;1722335;28;20212;-78
2023/10/27 14:25:05;;;;;;;8.70;6.73;;;15.10;97.20;;;;;;1722096;28;20209;-79
2023/10/27 14:25:57;;;;;;;3.08;1.60;;;15.10;97.20;;;;;;1722533;28;20515;-78
2023/10/27 14:26:49;;;;;;;2.72;1.70;;;15.10;97.20;;;;;;1722446;28;20213;-77
2023/10/27 14:27:41;;;;;;;2.80;1.70;;;15.10;97.20;;;;;;1722015;28;20809;-78
2023/10/27 14:28:33;;;;;;;3.00;2.30;;;15.10;97.20;;;;;;1722242;28;20684;-78
2023/10/27 14:29:24;;;;;;;3.20;2.90;;;15.10;97.20;;;;;;1721343;28;20194;-78
2023/10/27 14:30:16;;;;;;;2.80;1.93;;;15.10;97.20;;;;;;1722030;28;20201;-78
2023/10/27 14:31:06;;;;;;;3.42;1.45;;;15.10;97.20;;;;;;1722186;28;20216;-78
2023/10/27 14:31:58;;;;;;;1.80;1.13;;;15.10;97.20;;;;;;1722416;28;20207;-78
2023/10/27 14:32:50;;;;;;;2.25;1.75;;;15.10;97.20;;;;;;1721828;28;20594;-78
2023/10/27 14:33:41;;;;;;;4.28;2.53;;;15.10;97.20;;;;;;1722222;28;20205;-78
2023/10/27 14:34:32;;;;;;;6.13;1.57;;;15.20;97.20;;;;;;1721943;28;20209;-77
2023/10/27 14:35:23;;;;;;;7.00;2.28;;;15.20;97.20;;;;;;1722087;28;20201;-78
2023/10/27 14:36:14;;;;;;;4.27;1.77;;;15.20;97.20;;;;;;1722127;28;20203;-77
2023/10/27 14:37:07;;;;;;;2.50;1.70;;;15.20;97.20;;;;;;1722165;28;20205;-80
2023/10/27 14:37:58;;;;;;;3.88;3.40;;;15.20;97.20;;;;;;1722412;28;20887;-78
2023/10/27 14:38:49;;;;;;;3.67;2.53;;;15.20;97.20;;;;;;1721905;28;20572;-78
2023/10/27 14:39:42;;;;;;;2.30;1.47;;;15.20;97.20;;;;;;1721591;28;20221;-77
2023/10/27 14:40:34;;;;;;;6.32;2.30;;;15.30;97.20;;;;;;1722002;28;20237;-79
2023/10/27 14:41:25;;;;;;;2.42;1.25;;;15.20;97.20;;;;;;1721943;28;20284;-79
2023/10/27 14:42:16;;;;;;;1.83;1.47;;;15.30;97.20;;;;;;1722048;28;20209;-78
2023/10/27 14:43:07;;;;;;;2.33;2.10;;;15.20;97.20;;;;;;1723071;28;20451;-79
2023/10/27 14:43:59;;;;;;;3.07;2.00;;;15.20;97.20;;;;;;1722146;28;20193;-78
2023/10/27 14:44:50;;;;;;;5.38;4.38;;;15.20;97.20;;;;;;1721996;28;20456;-78
2023/10/27 14:45:41;;;;;;;4.18;3.25;;;15.20;97.20;;;;;;1722124;28;20207;-79
2023/10/27 14:46:33;;;;;;;4.30;2.30;;;15.20;97.20;;;;;;1722054;28;20305;-77
2023/10/27 14:47:23;;;;;;;2.88;2.28;;;15.20;97.20;;;;;;1722377;28;20201;-79
2023/10/27 14:48:16;;;;;;;2.40;2.20;;;15.10;97.20;;;;;;1721982;28;20189;-78
2023/10/27 14:49:08;;;;;;;1.92;1.15;;;15.10;97.20;;;;;;1721790;28;20552;-78
2023/10/27 14:49:58;;;;;;;2.45;1.00;;;15.10;97.20;;;;;;1722253;28;20225;-78
2023/10/27 14:50:55;;;;;;;1.40;1.20;;;15.00;97.20;;;;;;1722243;28;20205;-79
2023/10/27 14:51:47;;;;;;;2.10;1.90;;;15.00;97.20;;;;;;1722768;28;20201;-80
2023/10/27 14:52:38;;;;;;;2.05;1.40;;;14.90;97.20;;;;;;1722603;28;20209;-78
2023/10/27 14:53:29;;;;;;;3.10;2.40;;;14.90;97.20;;;;;;1722440;28;20193;-78
2023/10/27 14:54:20;;;;;;;4.60;1.50;;;14.90;97.20;;;;;;1722352;28;20241;-78
2023/10/27 14:55:11;;;;;;;1.90;1.23;;;14.90;97.20;;;;;;1722221;28;20213;-78
2023/10/27 14:56:04;;;;;;;1.60;1.50;;;14.80;97.20;;;;;;1722056;28;20288;-78
2023/10/27 14:56:55;;;;;;;1.77;1.30;;;14.80;97.20;;;;;;1725809;28;20189;-78
2023/10/27 14:57:46;;;;;;;1.65;1.00;;;14.80;97.20;;;;;;1728504;28;20236;-79
2023/10/27 14:58:38;;;;;;;3.13;1.13;;;14.80;97.20;;;;;;1721884;28;20201;-78
2023/10/27 14:59:29;;;;;;;1.20;1.08;;;14.80;97.20;;;;;;1721108;28;20229;-79
2023/10/27 15:00:20;;;;;;;2.92;1.63;;;14.80;97.20;;;;;;1722011;28;20220;-78
2023/10/27 15:01:14;;;;;;;3.57;1.30;;;14.70;97.20;;;;;;1721930;28;20203;-78
2023/10/27 15:02:05;;;;;;;2.13;1.10;;;14.70;97.20;;;;;;1722146;28;20209;-81
2023/10/27 15:02:57;;;;;;;1.35;1.25;;;14.70;97.20;;;;;;1722545;28;20825;-81
2023/10/27 15:03:49;;;;;;;3.35;1.50;;;14.70;97.20;;;;;;1723148;28;20201;-78
2023/10/27 15:04:43;;;;;;;0.90;0.80;;;14.70;97.20;;;;;;1721944;28;20658;-80
2023/10/27 15:05:33;;;;;;;2.65;1.08;;;14.70;97.20;;;;;;1722379;28;20288;-79
2023/10/27 15:06:25;;;;;;;1.57;1.10;;;14.70;97.20;;;;;;1721893;28;20684;-78
2023/10/27 15:07:20;;;;;;;1.70;1.20;;;14.70;97.20;;;;;;1722143;28;20201;-78
2023/10/27 15:08:11;;;;;;;1.65;1.13;;;14.70;97.20;;;;;;1721749;28;20205;-80
2023/10/27 15:09:03;;;;;;;1.77;1.20;;;14.60;97.20;;;;;;1722356;28;20255;-79
2023/10/27 15:09:54;;;;;;;1.98;1.15;;;14.60;97.20;;;;;;1721604;28;20535;-79
2023/10/27 15:10:45;;;;;;;1.47;1.10;;;14.60;97.20;;;;;;1722262;28;20205;-79
2023/10/27 15:11:37;;;;;;;1.95;1.48;;;14.50;97.20;;;;;;1721222;28;20444;-78
2023/10/27 15:12:27;;;;;;;2.33;1.00;;;14.50;97.20;;;;;;1721649;28;20212;-78
2023/10/27 15:13:18;;;;;;;1.43;1.00;;;14.50;97.20;;;;;;1721946;28;20204;-78
2023/10/27 15:14:10;;;;;;;1.77;1.17;;;14.50;97.20;;;;;;1722187;28;20212;-80
2023/10/27 15:15:01;;;;;;;2.10;1.30;;;14.50;97.20;;;;;;1722453;28;20263;-79
2023/10/27 15:16:01;;;;;;;3.20;1.37;;;14.50;97.20;;;;;;1722101;28;20209;-80
2023/10/27 15:16:53;;;;;;;3.13;1.63;;;14.50;97.20;;;;;;1722457;28;20197;-81
2023/10/27 15:17:44;;;;;;;4.00;1.40;;;14.50;97.20;;;;;;1725455;28;20200;-79
2023/10/27 15:18:35;;;;;;;2.90;1.30;;;14.50;97.20;;;;;;1721766;28;20232;-78
2023/10/27 15:19:28;;;;;;;2.00;1.20;;;14.50;97.20;;;;;;1720839;28;20225;-78
2023/10/27 15:20:19;;;;;;;2.08;1.38;;;14.50;97.20;;;;;;1715186;28;20209;-78
2023/10/27 15:21:12;;;;;;;4.57;1.40;;;14.50;97.20;;;;;;1715368;28;20190;-78
2023/10/27 15:22:04;;;;;;;2.00;0.80;;;14.50;97.20;;;;;;1719468;28;20217;-79
2023/10/27 15:22:56;;;;;;;2.10;1.40;;;14.50;97.20;;;;;;1721513;28;20212;-78
2023/10/27 15:23:48;;;;;;;2.30;0.93;;;14.50;97.20;;;;;;1721636;28;20205;-78
2023/10/27 15:24:39;;;;;;;2.13;1.50;;;14.50;97.20;;;;;;1722058;28;20209;-78
2023/10/27 15:25:33;;;;;;;3.03;1.40;;;14.50;97.20;;;;;;1721749;28;20269;-80
2023/10/27 15:26:26;;;;;;;1.52;1.42;;;14.50;97.20;;;;;;1721765;28;20572;-78
2023/10/27 15:27:16;;;;;;;2.92;1.60;;;14.50;97.20;;;;;;1721728;28;20263;-78
2023/10/27 15:28:07;;;;;;;1.40;1.07;;;14.50;97.20;;;;;;1721497;28;20205;-79
2023/10/27 15:28:59;;;;;;;2.23;1.20;;;14.50;97.20;;;;;;1721868;28;20205;-78
2023/10/27 15:29:49;;;;;;;2.40;1.60;;;14.50;97.20;;;;;;1720964;28;20252;-78
2023/10/27 15:30:40;;;;;;;2.07;1.33;;;14.50;97.20;;;;;;1721811;28;20213;-78
2023/10/27 15:31:32;;;;;;;3.10;2.47;;;14.50;97.20;;;;;;1721669;28;20203;-79
2023/10/27 15:32:23;;;;;;;4.22;2.70;;;14.50;97.20;;;;;;1722057;28;20701;-78
2023/10/27 15:33:14;;;;;;;2.53;1.50;;;14.50;97.20;;;;;;1721886;28;20288;-78
2023/10/27 15:34:05;;;;;;;2.10;1.60;;;14.50;97.20;;;;;;1727360;28;20196;-79
2023/10/27 15:34:58;;;;;;;2.28;1.45;;;14.40;97.20;;;;;;1728126;28;20442;-78
2023/10/27 15:35:49;;;;;;;2.10;1.60;;;14.40;97.20;;;;;;1723439;28;20251;-79
2023/10/27 15:36:41;;;;;;;2.73;2.03;;;14.40;97.20;;;;;;1721896;28;20610;-79
2023/10/27 15:37:32;;;;;;;2.50;1.60;;;14.40;97.20;;;;;;1722630;28;20224;-79
2023/10/27 15:38:23;;;;;;;7.03;4.60;;;14.30;97.20;;;;;;1728676;28;20215;-78
2023/10/27 15:39:15;;;;;;;2.33;1.48;;;14.30;97.20;;;;;;1726974;28;20204;-78
2023/10/27 15:40:12;;;;;;;1.75;1.40;;;14.30;97.20;;;;;;1721811;28;20225;-79
2023/10/27 15:41:04;;;;;;;2.00;1.30;;;14.30;97.20;;;;;;1721912;28;20205;-84
2023/10/27 15:41:57;;;;;;;2.47;1.35;;;14.20;97.20;;;;;;1722753;28;20271;-77
2023/10/27 15:42:48;;;;;;;2.47;1.10;;;14.20;97.20;;;;;;1721809;28;20209;-79
2023/10/27 15:43:38;;;;;;;1.50;1.10;;;14.20;97.20;;;;;;1721586;28;20201;-77
2023/10/27 15:44:30;;;;;;;1.27;1.17;;;14.20;97.20;;;;;;1721716;28;20617;-78
2023/10/27 15:45:21;;;;;;;2.13;1.17;;;14.20;97.20;;;;;;1721491;28;20224;-77
2023/10/27 15:46:12;;;;;;;2.78;1.25;;;14.10;97.20;;;;;;1721328;28;20201;-78
2023/10/27 15:47:04;;;;;;;1.33;1.23;;;14.10;97.20;;;;;;1721311;28;20205;-77
2023/10/27 15:47:55;;;;;;;1.30;1.20;;;14.10;97.20;;;;;;1721380;28;20208;-78
2023/10/27 15:48:46;;;;;;;2.30;1.40;;;14.10;97.20;;;;;;1721089;28;20205;-78
2023/10/27 15:49:37;;;;;;;2.20;1.40;;;14.10;97.20;;;;;;1719753;28;20484;-78
2023/10/27 15:50:31;;;;;;;1.90;1.45;;;14.10;97.20;;;;;;1726392;28;20200;-78
2023/10/27 15:51:21;;;;;;;1.80;1.00;;;14.00;97.20;;;;;;1724764;28;20287;-78
2023/10/27 15:52:14;;;;;;;3.33;1.23;;;14.00;97.20;;;;;;1721520;28;20200;-78
2023/10/27 15:53:05;;;;;;;1.40;0.95;;;14.00;97.20;;;;;;1721361;28;20205;-78
2023/10/27 15:53:56;;;;;;;2.47;1.27;;;14.00;97.20;;;;;;1721564;28;20197;-78
2023/10/27 15:54:48;;;;;;;2.65;1.08;;;13.90;97.20;;;;;;1721615;28;20196;-77
2023/10/27 15:55:38;;;;;;;1.13;1.00;;;13.90;97.20;;;;;;1721494;28;20209;-79
2023/10/27 15:56:30;;;;;;;3.67;2.13;;;13.90;97.20;;;;;;1721703;28;20205;-78
2023/10/27 15:57:21;;;;;;;2.30;1.20;;;13.90;97.20;;;;;;1721232;28;20585;-78
2023/10/27 15:58:12;;;;;;;0.90;0.80;;;13.90;97.20;;;;;;1721150;28;20215;-78
2023/10/27 15:59:04;;;;;;;3.25;0.90;;;13.80;97.20;;;;;;1721226;28;20213;-78
2023/10/27 15:59:55;;;;;;;2.63;1.13;;;13.80;97.20;;;;;;1721311;28;20701;-78
2023/10/27 16:00:47;;;;;;;1.97;1.00;;;13.80;97.20;;;;;;1721713;28;20617;-78
2023/10/27 16:01:37;;;;;;;1.30;0.90;;;13.80;97.20;;;;;;1721634;28;20201;-79
2023/10/27 16:02:29;;;;;;;2.43;1.10;;;13.80;97.20;;;;;;1721519;28;20211;-78
2023/10/27 16:03:20;;;;;;;1.40;1.10;;;13.80;97.20;;;;;;1721246;28;20289;-78
2023/10/27 16:04:13;;;;;;;3.42;0.70;;;13.80;97.20;;;;;;1721408;28;20545;-78
2023/10/27 16:05:05;;;;;;;1.98;1.10;;;13.80;97.20;;;;;;1721396;28;20311;-78
2023/10/27 16:05:58;;;;;;;2.08;1.00;;;13.70;97.20;;;;;;1721399;28;20205;-78
2023/10/27 16:06:50;;;;;;;3.05;0.82;;;13.70;97.20;;;;;;1722127;28;20205;-77
2023/10/27 16:07:41;;;;;;;2.40;1.30;;;13.70;97.20;;;;;;1721104;28;20288;-77
2023/10/27 16:08:33;;;;;;;5.60;1.23;;;13.70;97.20;;;;;;1721299;28;20201;-78
2023/10/27 16:09:23;;;;;;;2.03;0.90;;;13.70;97.20;;;;;;1720404;28;20213;-78
2023/10/27 16:10:14;;;;;;;2.00;1.20;;;13.60;97.20;;;;;;1721218;28;20197;-78
2023/10/27 16:11:06;;;;;;;2.50;1.10;;;13.60;97.20;;;;;;1721372;28;20235;-77
2023/10/27 16:11:57;;;;;;;1.65;1.00;;;13.60;97.20;;;;;;1721360;28;20444;-78
2023/10/27 16:12:47;;;;;;;1.33;1.03;;;13.60;97.20;;;;;;1721336;28;20201;-78
2023/10/27 16:13:39;;;;;;;1.67;0.80;;;13.60;97.20;;;;;;1721165;28;20193;-78
2023/10/27 16:14:31;;;;;;;2.85;1.40;;;13.60;97.20;;;;;;1721293;28;20457;-78
2023/10/27 16:15:21;;;;;;;1.45;0.90;;;13.60;97.20;;;;;;1721464;28;20205;-78
2023/10/27 16:16:17;;;;;;;2.33;1.53;;;13.60;97.20;;;;;;1721365;28;20209;-78
2023/10/27 16:17:08;;;;;;;2.63;1.10;;;13.60;97.20;;;;;;1721233;28;20217;-77
2023/10/27 16:18:00;;;;;;;3.15;1.17;;;13.50;97.20;;;;;;1721235;28;20284;-78
2023/10/27 16:18:51;;;;;;;2.67;1.40;;;13.60;97.20;;;;;;1721374;28;20225;-78
2023/10/27 16:19:43;;;;;;;2.00;1.17;;;13.50;97.20;;;;;;1720313;28;20225;-78
2023/10/27 16:20:33;;;;;;;2.70;1.27;;;13.50;97.20;;;;;;1721384;28;20205;-78
2023/10/27 16:21:25;;;;;;;4.47;1.07;;;13.50;97.20;;;;;;1721271;28;20212;-78
2023/10/27 16:22:18;;;;;;;2.55;1.48;;;13.50;97.20;;;;;;1721336;28;20205;-78
2023/10/27 16:23:08;;;;;;;2.33;1.02;;;13.50;97.20;;;;;;1722327;28;20208;-78
2023/10/27 16:24:00;;;;;;;2.73;1.30;;;13.40;97.20;;;;;;1721261;28;20203;-77
2023/10/27 16:24:51;;;;;;;4.60;1.05;;;13.40;97.20;;;;;;1721140;28;20209;-77
2023/10/27 16:25:43;;;;;;;3.33;1.20;;;13.40;97.20;;;;;;1722249;28;20276;-78
2023/10/27 16:26:33;;;;;;;2.97;1.33;;;13.40;97.20;;;;;;1721199;28;20452;-77
2023/10/27 16:27:24;;;;;;;1.50;1.20;;;13.40;97.20;;;;;;1721114;28;20209;-78
2023/10/27 16:28:16;;;;;;;1.57;1.20;;;13.30;97.20;;;;;;1721110;28;20204;-78
2023/10/27 16:29:07;;;;;;;2.97;1.23;;;13.30;97.20;;;;;;1720380;28;20205;-78
2023/10/27 16:29:58;;;;;;;2.17;1.33;;;13.30;97.20;;;;;;1721237;28;20300;-79
2023/10/27 16:30:51;;;;;;;1.10;0.93;;;13.20;97.20;;;;;;1721364;28;20205;-78
2023/10/27 16:31:41;;;;;;;6.35;1.70;;;13.20;97.20;;;;;;1721428;28;20684;-78
2023/10/27 16:32:32;;;;;;;3.13;1.50;;;13.20;97.20;;;;;;1721217;28;20627;-78
2023/10/27 16:33:24;;;;;;;3.17;1.40;;;13.20;97.20;;;;;;1721381;28;20197;-77
2023/10/27 16:34:15;;;;;;;1.67;1.08;;;13.20;97.20;;;;;;1721333;28;20201;-78
2023/10/27 16:35:06;;;;;;;2.20;1.33;;;13.20;97.20;;;;;;1721405;28;20209;-77
2023/10/27 16:36:01;;;;;;;1.30;1.20;;;13.20;97.20;;;;;;1721340;28;20284;-78
2023/10/27 16:36:53;;;;;;;2.60;1.70;;;13.20;97.20;;;;;;1721190;28;20209;-78
2023/10/27 16:37:45;;;;;;;2.70;1.13;;;13.10;97.20;;;;;;1721108;28;20712;-78
2023/10/27 16:38:36;;;;;;;2.38;1.00;;;13.10;97.20;;;;;;1721092;28;20204;-78
2023/10/27 16:39:26;;;;;;;2.83;1.07;;;13.10;97.20;;;;;;1724789;28;20254;-78
2023/10/27 16:40:18;;;;;;;1.60;1.30;;;13.10;97.20;;;;;;1726975;28;20371;-78
2023/10/27 16:41:10;;;;;;;6.72;2.03;;;13.10;97.20;;;;;;1721165;28;20774;-77
2023/10/27 16:42:03;;;;;;;2.33;1.90;;;13.10;97.20;;;;;;1721071;28;20197;-78
2023/10/27 16:42:54;;;;;;;2.42;1.70;;;13.10;97.20;;;;;;1720886;28;20688;-78
2023/10/27 16:43:46;;;;;;;3.50;1.90;;;13.10;97.20;;;;;;1721219;28;20228;-78
2023/10/27 16:44:37;;;;;;;3.70;2.00;;;13.10;97.20;;;;;;1721005;28;20201;-78
2023/10/27 16:45:29;;;;;;;3.07;1.97;;;13.10;97.20;;;;;;1721910;28;20223;-78
2023/10/27 16:46:21;;;;;;;3.15;1.98;;;13.10;97.20;;;;;;1721189;28;20451;-78
2023/10/27 16:47:13;;;;;;;2.65;2.40;;;13.10;97.20;;;;;;1720991;28;20212;-77
2023/10/27 16:48:05;;;;;;;2.90;2.28;;;13.10;97.20;;;;;;1720983;28;20213;-78
2023/10/27 16:48:57;;;;;;;3.03;1.95;;;13.10;97.20;;;;;;1721131;28;20212;-77
2023/10/27 16:49:48;;;;;;;3.10;2.25;;;13.10;97.20;;;;;;1720381;28;20224;-77
2023/10/27 16:50:39;;;;;;;1.83;1.73;;;13.10;97.20;;;;;;1720989;28;20201;-78
2023/10/27 16:51:30;;;;;;;2.03;1.90;;;13.10;97.20;;;;;;1721122;28;20361;-77
2023/10/27 16:52:23;;;;;;;2.60;2.30;;;13.00;97.20;;;;;;1720860;28;20213;-77
2023/10/27 16:53:14;;;;;;;3.03;2.72;;;13.00;97.20;;;;;;1719667;28;20292;-78
2023/10/27 16:54:07;;;;;;;4.63;2.93;;;13.00;97.20;;;;;;1720605;28;20212;-78
2023/10/27 16:54:58;;;;;;;3.65;2.58;;;13.00;97.20;;;;;;1720510;28;20216;-78
2023/10/27 16:55:52;;;;;;;3.20;2.20;;;13.00;97.20;;;;;;1721647;28;20205;-77
2023/10/27 16:56:43;;;;;;;2.58;2.08;;;13.00;97.20;;;;;;1720808;28;20296;-78
2023/10/27 16:57:34;;;;;;;2.97;2.00;;;13.00;97.20;;;;;;1720269;28;20861;-78
2023/10/27 16:58:25;;;;;;;4.33;1.67;;;13.00;97.20;;;;;;1720643;28;20837;-78
2023/10/27 16:59:19;;;;;;;2.63;2.30;;;13.00;97.20;;;;;;1720438;28;20444;-77
2023/10/27 17:00:10;;;;;;;3.10;1.90;;;13.00;97.20;;;;;;1720624;28;20224;-78
2023/10/27 17:01:02;;;;;;;3.22;2.10;;;12.90;97.20;;;;;;1720985;28;20204;-77
2023/10/27 17:01:55;;;;;;;3.13;2.22;;;12.90;97.20;;;;;;1721086;28;20636;-78
2023/10/27 17:02:45;;;;;;;3.83;2.95;;;12.90;97.20;;;;;;1720882;28;20205;-78
2023/10/27 17:03:36;;;;;;;4.30;2.17;;;12.90;97.20;;;;;;1720898;28;20193;-77
2023/10/27 17:04:28;;;;;;;2.53;2.20;;;12.90;97.20;;;;;;1721009;28;20666;-78
2023/10/27 17:05:19;;;;;;;4.28;2.78;;;12.90;97.20;;;;;;1720854;28;20208;-78
2023/10/27 17:06:10;;;;;;;2.00;1.80;;;12.90;97.20;;;;;;1720707;28;20200;-78
2023/10/27 17:07:03;;;;;;;3.77;2.37;;;12.90;97.20;;;;;;1720958;28;20857;-78
2023/10/27 17:07:57;;;;;;;3.53;2.05;;;12.80;97.20;;;;;;1720774;28;20822;-78
2023/10/27 17:08:48;;;;;;;3.08;1.80;;;12.80;97.20;;;;;;1720934;28;20559;-78
2023/10/27 17:09:40;;;;;;;3.05;1.73;;;12.80;97.20;;;;;;1725559;28;20746;-78
2023/10/27 17:10:31;;;;;;;3.10;1.60;;;12.80;97.20;;;;;;1721011;28;20213;-77
2023/10/27 17:11:21;;;;;;;1.83;1.20;;;12.70;97.20;;;;;;1720867;28;20207;-78
2023/10/27 17:12:13;;;;;;;2.73;1.47;;;12.70;97.20;;;;;;1720848;28;20564;-78
2023/10/27 17:13:04;;;;;;;2.40;1.60;;;12.70;97.20;;;;;;1720925;28;20210;-77
2023/10/27 17:13:55;;;;;;;3.35;1.40;;;12.70;97.20;;;;;;1720732;28;20273;-77
2023/10/27 17:14:51;;;;;;;2.60;1.50;;;12.70;97.20;;;;;;1720895;28;20301;-77
2023/10/27 17:15:42;;;;;;;1.42;1.30;;;12.60;97.20;;;;;;1720791;28;20212;-78
2023/10/27 17:16:32;;;;;;;2.57;1.33;;;12.60;97.20;;;;;;1720839;28;20200;-78
2023/10/27 17:17:24;;;;;;;1.90;1.57;;;12.60;97.20;;;;;;1720890;28;20472;-78
2023/10/27 17:18:15;;;;;;;2.38;1.40;;;12.60;97.20;;;;;;1720577;28;20595;-78
2023/10/27 17:19:07;;;;;;;3.10;1.50;;;12.60;97.20;;;;;;1720161;28;20663;-76
2023/10/27 17:19:59;;;;;;;2.47;1.55;;;12.60;97.20;;;;;;1720686;28;20316;-78
2023/10/27 17:20:51;;;;;;;4.82;1.70;;;12.60;97.20;;;;;;1720791;28;20630;-78
2023/10/27 17:21:42;;;;;;;1.52;1.10;;;12.60;97.20;;;;;;1721043;28;20208;-78
2023/10/27 17:22:33;;;;;;;1.43;1.20;;;12.60;97.20;;;;;;1720891;28;20197;-78
2023/10/27 17:23:26;;;;;;;3.10;1.50;;;12.60;97.20;;;;;;1720867;28;20216;-77
2023/10/27 17:24:18;;;;;;;1.92;1.45;;;12.60;97.20;;;;;;1720825;28;20205;-78
2023/10/27 17:25:10;;;;;;;3.25;1.80;;;12.60;97.20;;;;;;1721534;28;20193;-78
2023/10/27 17:26:01;;;;;;;2.42;1.60;;;12.60;97.20;;;;;;1720706;28;20700;-78
2023/10/27 17:26:51;;;;;;;4.13;2.03;;;12.60;97.20;;;;;;1720808;28;20843;-78
2023/10/27 17:27:44;;;;;;;3.00;1.67;;;12.60;97.20;;;;;;1720565;28;20208;-78
2023/10/27 17:28:35;;;;;;;4.78;1.67;;;12.60;97.20;;;;;;1720745;28;20292;-77